Time;durP1;ratioP1;P1;durP2;ratioP2;P2;SDS_P1;SDS_P2;PMS_P1;PMS_P2;Temp;Humidity;BMP_temperature;BMP_pressure;BME280_temperature;BME280_humidity;BME280_pressure;Samples;Min_cycle;Max_cycle;Signal;HPM_P1;HPM_P2
2023/04/01 00:00:27;;;;;;;0.10;0.10;;;;;;;17.55;64.61;99112.91;5052141;28;20072;-65
2023/04/01 00:02:52;;;;;;;0.10;0.10;;;;;;;17.99;63.67;99109.25;5052465;28;20053;-63
2023/04/01 00:05:17;;;;;;;0.10;0.10;;;;;;;17.68;64.66;99110.41;5047890;28;20049;-64
2023/04/01 00:07:43;;;;;;;0.20;0.20;;;;;;;17.69;64.93;99109.31;5040054;28;20016;-63
2023/04/01 00:10:11;;;;;;;0.20;0.20;;;;;;;18.31;62.79;99108.84;5052947;28;20071;-65
2023/04/01 00:12:38;;;;;;;0.20;0.20;;;;;;;18.23;62.78;99111.53;5052249;28;20029;-64
2023/04/01 00:15:06;;;;;;;0.10;0.10;;;;;;;18.22;62.25;99113.47;5052517;28;20029;-64
2023/04/01 00:17:32;;;;;;;0.17;0.17;;;;;;;18.02;63.62;99111.34;5052229;28;20041;-63
2023/04/01 00:19:57;;;;;;;0.20;0.20;;;;;;;18.25;62.83;99104.69;5052582;28;20075;-63
2023/04/01 00:22:24;;;;;;;0.20;0.20;;;;;;;17.83;63.48;99113.50;5052295;28;20032;-63
2023/04/01 00:24:49;;;;;;;0.10;0.10;;;;;;;18.03;63.94;99115.66;5052139;28;20220;-66
2023/04/01 00:27:15;;;;;;;0.20;0.20;;;;;;;18.14;62.99;99116.19;5052486;28;20040;-67
2023/04/01 00:29:46;;;;;;;0.20;0.20;;;;;;;18.21;63.23;99113.78;5052038;28;20123;-64
2023/04/01 00:32:12;;;;;;;0.17;0.17;;;;;;;18.01;63.20;99117.88;5054886;28;20123;-65
2023/04/01 00:34:37;;;;;;;0.20;0.20;;;;;;;17.79;64.45;99117.97;5056292;28;20483;-64
2023/04/01 00:37:03;;;;;;;0.20;0.20;;;;;;;17.96;64.20;99109.91;5051266;28;20037;-65
2023/04/01 00:39:34;;;;;;;0.20;0.20;;;;;;;18.36;62.42;99119.56;5047261;28;20560;-64
2023/04/01 00:42:00;;;;;;;0.10;0.10;;;;;;;17.47;65.76;99110.16;5051925;28;20047;-64
2023/04/01 00:44:28;;;;;;;0.20;0.20;;;;;;;17.70;64.82;99116.34;5051527;28;20122;-64
2023/04/01 00:46:56;;;;;;;0.30;0.30;;;;;;;17.99;63.62;99113.88;5051307;28;20221;-63
2023/04/01 00:49:28;;;;;;;0.13;0.13;;;;;;;18.01;63.48;99114.38;5051885;28;20053;-65
2023/04/01 00:51:57;;;;;;;0.20;0.20;;;;;;;17.31;64.88;99115.19;5033057;28;20053;-66
2023/04/01 00:54:24;;;;;;;0.10;0.10;;;;;;;18.00;63.49;99121.75;5052778;28;20029;-64
2023/04/01 00:56:55;;;;;;;0.20;0.20;;;;;;;17.75;64.19;99122.44;5051528;28;20554;-64
2023/04/01 00:59:25;;;;;;;0.20;0.20;;;;;;;18.08;63.87;99114.72;5051467;28;20039;-64
2023/04/01 01:01:50;;;;;;;0.10;0.10;;;;;;;17.95;64.30;99124.59;5050707;28;20404;-64
2023/04/01 01:04:27;;;;;;;0.20;0.20;;;;;;;18.21;62.85;99127.38;5051769;28;20036;-63
2023/04/01 01:07:11;;;;;;;0.17;0.17;;;;;;;17.56;65.23;99121.88;5034299;28;20252;-63
2023/04/01 01:09:58;;;;;;;0.10;0.10;;;;;;;18.36;63.24;99121.47;5050977;28;20069;-63
2023/04/01 01:12:34;;;;;;;0.10;0.10;;;;;;;18.33;63.13;99124.84;5050712;28;20102;-63
2023/04/01 01:15:20;;;;;;;0.20;0.20;;;;;;;18.56;62.52;99131.78;5050678;28;20068;-63
2023/04/01 01:18:00;;;;;;;0.10;0.10;;;;;;;18.62;61.44;99122.34;5050882;28;20078;-64
2023/04/01 01:20:48;;;;;;;0.10;0.10;;;;;;;18.78;60.93;99126.19;5051078;28;20409;-63
2023/04/01 01:23:38;;;;;;;0.20;0.20;;;;;;;18.74;60.87;99125.22;5034598;28;20116;-64
2023/04/01 01:26:26;;;;;;;0.10;0.10;;;;;;;18.44;62.03;99130.81;5050798;28;20551;-64
2023/04/01 01:29:13;;;;;;;0.15;0.15;;;;;;;18.63;61.07;99131.31;5050271;28;20473;-63
2023/04/01 01:31:47;;;;;;;0.20;0.20;;;;;;;18.42;61.89;99134.66;5050527;28;20021;-64
2023/04/01 01:34:36;;;;;;;0.13;0.13;;;;;;;18.73;61.22;99122.84;5050739;28;20044;-65
2023/04/01 01:37:06;;;;;;;0.10;0.10;;;;;;;18.37;61.96;99132.06;5051016;28;20036;-64
2023/04/01 01:39:34;;;;;;;0.20;0.20;;;;;;;18.68;61.20;99131.13;5050908;28;20036;-64
2023/04/01 01:42:04;;;;;;;0.20;0.20;;;;;;;18.63;61.46;99134.03;5050763;28;20037;-64
2023/04/01 01:44:31;;;;;;;0.10;0.10;;;;;;;18.78;60.49;99134.34;5050524;28;20048;-65
2023/04/01 01:46:58;;;;;;;0.20;0.20;;;;;;;18.61;60.91;99142.53;5050331;28;20020;-63
2023/04/01 01:49:24;;;;;;;0.10;0.10;;;;;;;18.48;61.56;99135.28;5051626;28;20455;-65
2023/04/01 01:51:50;;;;;;;0.13;0.13;;;;;;;18.21;62.08;99139.06;5059037;28;20028;-63
2023/04/01 01:54:16;;;;;;;0.13;0.13;;;;;;;18.49;61.37;99138.81;5058840;28;20578;-64
2023/04/01 01:56:46;;;;;;;0.20;0.20;;;;;;;18.61;61.50;99139.00;5051270;28;20041;-65
2023/04/01 01:59:15;;;;;;;0.22;0.22;;;;;;;18.60;61.07;99137.38;5035279;28;20488;-64
2023/04/01 02:01:45;;;;;;;0.20;0.20;;;;;;;18.77;61.19;99137.41;5050037;28;20043;-65
2023/04/01 02:04:14;;;;;;;0.15;0.15;;;;;;;18.79;60.55;99143.31;5051308;28;20075;-65
2023/04/01 02:07:01;;;;;;;0.20;0.20;;;;;;;18.82;60.59;99150.84;5050758;28;20124;-64
2023/04/01 02:09:26;;;;;;;0.10;0.10;;;;;;;18.92;60.01;99147.81;5036714;28;20492;-63
2023/04/01 02:11:57;;;;;;;0.10;0.10;;;;;;;18.83;60.31;99152.47;5051060;28;20036;-64
2023/04/01 02:14:29;;;;;;;0.10;0.10;;;;;;;18.74;61.33;99149.72;5033396;28;20033;-63
2023/04/01 02:17:20;;;;;;;0.25;0.25;;;;;;;19.04;60.07;99154.22;5051077;28;20112;-64
2023/04/01 02:20:12;;;;;;;0.10;0.10;;;;;;;19.11;59.68;99151.78;5050968;28;20048;-64
2023/04/01 02:22:42;;;;;;;0.10;0.10;;;;;;;18.96;60.18;99162.38;4950561;29;20055;-65
2023/04/01 02:25:12;;;;;;;0.20;0.20;;;;;;;19.01;59.87;99159.47;4950488;29;20051;-63
2023/04/01 02:27:39;;;;;;;0.17;0.17;;;;;;;18.85;59.60;99166.53;4959957;28;20514;-64
2023/04/01 02:30:07;;;;;;;0.20;0.20;;;;;;;18.76;60.54;99168.44;4958919;28;20635;-65
2023/04/01 02:32:33;;;;;;;0.20;0.20;;;;;;;18.85;59.90;99164.59;4949879;29;20070;-63
2023/04/01 02:35:03;;;;;;;0.05;0.05;;;;;;;18.08;62.98;99171.81;4950113;29;20134;-64
2023/04/01 02:37:28;;;;;;;0.10;0.10;;;;;;;18.54;61.61;99174.00;4950652;29;20527;-64
2023/04/01 02:39:54;;;;;;;0.20;0.20;;;;;;;18.64;61.12;99171.00;4950447;29;20134;-65
2023/04/01 02:42:19;;;;;;;0.10;0.10;;;;;;;18.68;61.15;99171.97;4950167;29;20504;-64
2023/04/01 02:44:44;;;;;;;0.20;0.20;;;;;;;18.48;61.66;99167.94;4950106;29;20039;-63
2023/04/01 02:47:10;;;;;;;0.20;0.20;;;;;;;18.69;61.33;99177.06;4954716;28;20035;-65
2023/04/01 02:49:35;;;;;;;0.10;0.10;;;;;;;18.47;61.47;99169.06;4969972;28;20038;-65
2023/04/01 02:52:00;;;;;;;0.10;0.10;;;;;;;18.50;62.07;99175.75;4953223;28;20034;-64
2023/04/01 02:54:26;;;;;;;0.20;0.20;;;;;;;18.48;61.50;99184.25;4969345;28;20039;-63
2023/04/01 02:56:51;;;;;;;0.10;0.10;;;;;;;18.35;61.79;99179.72;4953108;28;20511;-64
2023/04/01 02:59:17;;;;;;;0.10;0.10;;;;;;;17.55;64.04;99194.41;4993862;28;20040;-63
2023/04/01 03:01:42;;;;;;;0.13;0.13;;;;;;;18.11;62.33;99187.47;5031593;28;20504;-65
2023/04/01 03:04:08;;;;;;;0.17;0.17;;;;;;;18.15;62.03;99185.72;5050964;28;20028;-65
2023/04/01 03:06:33;;;;;;;0.20;0.20;;;;;;;18.40;61.47;99183.09;5049315;28;20504;-65
2023/04/01 03:08:58;;;;;;;0.20;0.20;;;;;;;18.02;62.76;99190.19;5049641;28;20044;-64
2023/04/01 03:11:26;;;;;;;0.10;0.10;;;;;;;18.33;61.54;99195.56;5050690;28;20044;-66
2023/04/01 03:13:51;;;;;;;0.10;0.10;;;;;;;18.32;62.10;99192.03;5053466;28;20121;-65
2023/04/01 03:16:16;;;;;;;0.20;0.20;;;;;;;18.55;60.91;99194.69;5054041;28;20029;-63
2023/04/01 03:18:42;;;;;;;0.22;0.22;;;;;;;18.47;61.33;99195.47;5053410;28;20033;-66
2023/04/01 03:21:22;;;;;;;0.10;0.10;;;;;;;18.88;60.47;99196.66;5053207;28;20040;-64
2023/04/01 03:23:47;;;;;;;0.10;0.10;;;;;;;18.61;60.76;99201.56;5053024;28;20036;-63
2023/04/01 03:26:13;;;;;;;0.20;0.20;;;;;;;18.20;62.33;99208.13;5053415;28;20086;-63
2023/04/01 03:28:39;;;;;;;0.13;0.13;;;;;;;18.05;62.49;99207.75;5053239;28;20443;-64
2023/04/01 03:31:04;;;;;;;0.15;0.15;;;;;;;18.44;60.90;99209.69;5053989;28;20025;-64
2023/04/01 03:33:30;;;;;;;0.20;0.20;;;;;;;18.28;62.07;99212.81;5035700;28;20037;-64
2023/04/01 03:35:56;;;;;;;0.20;0.20;;;;;;;17.54;64.57;99209.09;5026086;28;20045;-64
2023/04/01 03:38:21;;;;;;;0.10;0.10;;;;;;;17.92;62.62;99214.09;5053715;28;20041;-65
2023/04/01 03:40:47;;;;;;;0.20;0.20;;;;;;;17.61;64.47;99222.22;5053211;28;20044;-64
2023/04/01 03:43:12;;;;;;;0.20;0.20;;;;;;;18.46;61.30;99218.31;5053808;28;20021;-64
2023/04/01 03:45:45;;;;;;;0.15;0.15;;;;;;;18.75;60.49;99222.06;5053632;28;20040;-63
2023/04/01 03:48:10;;;;;;;0.20;0.20;;;;;;;18.66;60.31;99223.97;5053774;28;20041;-65
2023/04/01 03:50:35;;;;;;;0.20;0.20;;;;;;;18.63;60.36;99221.91;5054119;28;20048;-63
2023/04/01 03:53:01;;;;;;;0.20;0.20;;;;;;;18.81;59.98;99226.25;5053512;28;20031;-65
2023/04/01 03:55:26;;;;;;;0.17;0.17;;;;;;;18.70;60.65;99229.59;5054467;28;20443;-64
2023/04/01 03:57:52;;;;;;;0.10;0.10;;;;;;;18.76;59.88;99225.59;5054092;28;20041;-64
2023/04/01 04:00:17;;;;;;;0.20;0.20;;;;;;;18.61;60.53;99231.50;5053698;28;20078;-64
2023/04/01 04:02:44;;;;;;;0.20;0.20;;;;;;;18.34;60.91;99233.31;5051154;28;20037;-63
2023/04/01 04:05:10;;;;;;;0.20;0.20;;;;;;;18.29;61.83;99235.38;5036315;28;20136;-64
2023/04/01 04:07:35;;;;;;;0.20;0.20;;;;;;;18.20;61.51;99240.75;5053142;28;20087;-64
2023/04/01 04:10:01;;;;;;;0.10;0.10;;;;;;;17.70;62.98;99236.69;5053266;28;20037;-64
2023/04/01 04:12:26;;;;;;;0.15;0.15;;;;;;;18.27;61.36;99234.88;5052803;28;20033;-65
2023/04/01 04:14:52;;;;;;;0.20;0.20;;;;;;;18.17;61.43;99240.59;5052903;28;20033;-66
2023/04/01 04:17:17;;;;;;;0.20;0.20;;;;;;;18.01;61.39;99245.66;5053263;28;20485;-63
2023/04/01 04:19:43;;;;;;;0.10;0.10;;;;;;;18.23;61.04;99248.31;5053026;28;20029;-63
2023/04/01 04:22:08;;;;;;;0.20;0.20;;;;;;;18.38;60.73;99247.06;5053154;28;20040;-64
2023/04/01 04:24:37;;;;;;;0.20;0.20;;;;;;;18.43;60.29;99249.69;5052139;28;20036;-63
2023/04/01 04:27:02;;;;;;;0.10;0.10;;;;;;;18.53;59.72;99252.13;5052760;28;20063;-64
2023/04/01 04:29:28;;;;;;;0.10;0.10;;;;;;;18.50;60.27;99254.66;5053155;28;20059;-63
2023/04/01 04:31:53;;;;;;;0.20;0.20;;;;;;;18.56;59.99;99253.41;5052636;28;20021;-63
2023/04/01 04:34:19;;;;;;;0.10;0.10;;;;;;;18.36;60.83;99257.47;5053064;28;20595;-64
2023/04/01 04:36:44;;;;;;;0.10;0.10;;;;;;;18.54;60.05;99258.34;5052759;28;20049;-64
2023/04/01 04:39:09;;;;;;;0.25;0.25;;;;;;;18.44;60.72;99266.81;5052421;28;20039;-64
2023/04/01 04:41:37;;;;;;;0.20;0.20;;;;;;;18.16;61.72;99277.06;5052711;28;20033;-66
2023/04/01 04:44:03;;;;;;;0.10;0.10;;;;;;;18.41;60.06;99268.22;5052898;28;20063;-64
2023/04/01 04:46:28;;;;;;;0.10;0.10;;;;;;;18.32;61.05;99273.63;5053072;28;20103;-65
2023/04/01 04:48:54;;;;;;;0.20;0.20;;;;;;;18.45;59.89;99269.22;5052581;28;20037;-64
2023/04/01 04:51:20;;;;;;;0.20;0.20;;;;;;;18.41;60.34;99282.63;5052408;28;20035;-63
2023/04/01 04:53:46;;;;;;;0.20;0.20;;;;;;;18.38;60.44;99282.44;5052153;28;20139;-64
2023/04/01 04:56:12;;;;;;;0.20;0.20;;;;;;;18.59;59.80;99285.44;5052612;28;20029;-63
2023/04/01 04:58:38;;;;;;;0.20;0.20;;;;;;;18.48;60.59;99281.38;5052991;28;20108;-64
2023/04/01 05:01:11;;;;;;;0.20;0.20;;;;;;;18.54;60.00;99293.72;5052434;28;20180;-64
2023/04/01 05:03:38;;;;;;;0.20;0.20;;;;;;;18.61;59.88;99288.63;5051848;28;20052;-64
2023/04/01 05:06:04;;;;;;;0.20;0.20;;;;;;;18.38;60.78;99294.13;5051822;28;20060;-64
2023/04/01 05:08:30;;;;;;;0.20;0.20;;;;;;;18.47;60.17;99296.09;5052079;28;20029;-64
2023/04/01 05:10:55;;;;;;;0.20;0.20;;;;;;;18.11;61.98;99304.38;5051882;28;20500;-64
2023/04/01 05:13:21;;;;;;;0.20;0.20;;;;;;;18.59;59.69;99297.13;5052391;28;20492;-63
2023/04/01 05:15:46;;;;;;;0.20;0.20;;;;;;;18.54;60.37;99302.69;5052008;28;20045;-65
2023/04/01 05:18:12;;;;;;;0.10;0.10;;;;;;;18.56;59.85;99308.63;5051849;28;20037;-65
2023/04/01 05:20:37;;;;;;;0.10;0.10;;;;;;;18.53;60.21;99311.97;5051490;28;20041;-63
2023/04/01 05:23:03;;;;;;;0.20;0.20;;;;;;;18.61;59.87;99313.13;5051367;28;20160;-64
2023/04/01 05:25:28;;;;;;;0.20;0.20;;;;;;;18.63;60.00;99310.91;5052272;28;20033;-64
2023/04/01 05:27:54;;;;;;;0.20;0.20;;;;;;;18.70;59.68;99314.75;5051588;28;20071;-65
2023/04/01 05:30:20;;;;;;;0.15;0.15;;;;;;;18.54;60.25;99319.00;5051919;28;20033;-64
2023/04/01 05:32:45;;;;;;;0.20;0.20;;;;;;;18.67;59.40;99328.19;5051179;28;20041;-64
2023/04/01 05:35:10;;;;;;;0.20;0.20;;;;;;;18.82;59.38;99323.13;5050407;28;20040;-64
2023/04/01 05:37:36;;;;;;;0.22;0.22;;;;;;;18.63;59.79;99336.19;5051952;28;20533;-64
2023/04/01 05:40:03;;;;;;;0.10;0.10;;;;;;;18.61;60.06;99341.16;5051622;28;20032;-63
2023/04/01 05:42:29;;;;;;;0.20;0.20;;;;;;;18.65;60.12;99335.88;5051588;28;20041;-64
2023/04/01 05:44:55;;;;;;;0.10;0.10;;;;;;;18.83;59.44;99326.66;5051285;28;20060;-65
2023/04/01 05:47:21;;;;;;;0.10;0.10;;;;;;;18.93;59.09;99337.22;5051099;28;20029;-65
2023/04/01 05:49:46;;;;;;;0.10;0.10;;;;;;;18.63;59.54;99340.81;5050687;28;20120;-63
2023/04/01 05:52:11;;;;;;;0.20;0.20;;;;;;;18.67;59.92;99348.03;5051204;28;20040;-64
2023/04/01 05:54:37;;;;;;;0.20;0.20;;;;;;;18.72;60.14;99353.34;5050791;28;20043;-64
2023/04/01 05:57:02;;;;;;;0.47;0.20;;;;;;;18.39;61.51;99352.06;5050968;28;20025;-62
2023/04/01 05:59:28;;;;;;;0.20;0.20;;;;;;;18.53;60.62;99360.97;5050968;28;20164;-64
2023/04/01 06:01:53;;;;;;;0.20;0.20;;;;;;;18.37;60.65;99357.81;5050516;28;20104;-63
2023/04/01 06:04:19;;;;;;;0.13;0.13;;;;;;;18.49;60.70;99365.41;5051856;28;20500;-63
2023/04/01 06:06:45;;;;;;;0.20;0.20;;;;;;;18.56;60.77;99370.38;5050227;28;20048;-64
2023/04/01 06:09:17;;;;;;;0.20;0.20;;;;;;;18.59;60.35;99367.88;5050696;28;20041;-63
2023/04/01 06:12:01;;;;;;;0.20;0.20;;;;;;;18.52;61.41;99367.50;5050625;28;20753;-62
2023/04/01 06:15:05;;;;;;;0.10;0.10;;;;;;;18.58;60.83;99379.03;5049657;28;20140;-65
2023/04/01 06:17:49;;;;;;;0.20;0.20;;;;;;;18.69;60.50;99374.94;5050111;28;20087;-65
2023/04/01 06:20:39;;;;;;;0.20;0.20;;;;;;;18.67;60.28;99386.13;5048108;28;20496;-64
2023/04/01 06:23:10;;;;;;;0.20;0.20;;;;;;;18.22;61.91;99390.81;5049960;28;20048;-63
2023/04/01 06:26:00;;;;;;;0.22;0.22;;;;;;;18.13;63.02;99392.69;5045976;28;20388;-65
2023/04/01 06:28:58;;;;;;;0.10;0.10;;;;;;;18.60;61.80;99396.66;5040811;28;20038;-65
2023/04/01 06:32:01;;;;;;;0.20;0.20;;;;;;;18.54;62.35;99395.19;5035758;28;20131;-64
2023/04/01 06:34:45;;;;;;;0.20;0.20;;;;;;;18.58;60.77;99398.09;5049321;28;20116;-64
2023/04/01 06:37:35;;;;;;;0.20;0.20;;;;;;;17.91;63.62;99408.19;5045214;28;20041;-63
2023/04/01 06:40:21;;;;;;;0.20;0.20;;;;;;;17.76;65.49;99414.78;4950580;28;20093;-64
2023/04/01 06:42:47;;;;;;;0.17;0.17;;;;;;;18.21;63.44;99415.59;4967985;28;20070;-64
2023/04/01 06:45:27;;;;;;;0.20;0.20;;;;;;;18.18;62.94;99410.81;4969110;28;20125;-62
2023/04/01 06:48:31;;;;;;;0.20;0.20;;;;;;;17.85;64.81;99417.56;4971742;28;20435;-63
2023/04/01 06:51:11;;;;;;;0.22;0.22;;;;;;;17.81;65.16;99422.81;4934070;29;20032;-64
2023/04/01 06:54:10;;;;;;;0.20;0.20;;;;;;;17.87;64.25;99426.22;4931778;29;20050;-62
2023/04/01 06:56:40;;;;;;;0.20;0.20;;;;;;;18.05;64.58;99423.34;4934324;29;20115;-63
2023/04/01 06:59:12;;;;;;;0.20;0.20;;;;;;;17.85;65.63;99434.66;4934144;29;20048;-64
2023/04/01 07:01:46;;;;;;;0.20;0.20;;;;;;;17.76;65.44;99425.66;4934791;29;20150;-64
2023/04/01 07:04:20;;;;;;;0.20;0.20;;;;;;;18.22;64.19;99433.53;4934318;29;20099;-65
2023/04/01 07:07:10;;;;;;;0.20;0.20;;;;;;;18.53;62.97;99434.41;4937108;29;20153;-63
2023/04/01 07:09:41;;;;;;;0.20;0.20;;;;;;;18.18;64.37;99446.16;4940662;28;20038;-64
2023/04/01 07:12:18;;;;;;;0.20;0.20;;;;;;;18.38;64.13;99448.34;4919828;29;20534;-64
2023/04/01 07:14:44;;;;;;;0.15;0.15;;;;;;;18.06;65.12;99449.41;4934402;28;20393;-63
2023/04/01 07:17:18;;;;;;;0.20;0.20;;;;;;;18.84;63.66;99451.53;4955418;28;20089;-62
2023/04/01 07:20:10;;;;;;;0.15;0.15;;;;;;;18.97;62.78;99458.78;4991970;28;20038;-64
2023/04/01 07:22:41;;;;;;;0.20;0.20;;;;;;;18.78;63.32;99468.31;4974263;28;20483;-64
2023/04/01 07:25:19;;;;;;;0.10;0.10;;;;;;;19.20;61.55;99468.50;4991718;28;20053;-63
2023/04/01 07:27:46;;;;;;;0.10;0.10;;;;;;;18.79;63.05;99469.94;5012901;28;20029;-63
2023/04/01 07:30:19;;;;;;;0.10;0.10;;;;;;;19.04;62.37;99472.78;5033329;28;20060;-64
2023/04/01 07:33:03;;;;;;;0.10;0.10;;;;;;;18.45;63.40;99488.75;5032752;28;20056;-69
2023/04/01 07:35:38;;;;;;;0.20;0.20;;;;;;;19.10;62.17;99481.59;5032719;28;20041;-63
2023/04/01 07:38:31;;;;;;;0.10;0.10;;;;;;;19.74;59.84;99486.31;5032177;28;20034;-64
2023/04/01 07:41:14;;;;;;;0.20;0.20;;;;;;;18.92;62.24;99496.25;5032941;28;20088;-64
2023/04/01 07:44:05;;;;;;;0.20;0.20;;;;;;;19.25;61.09;99495.59;5032455;28;20077;-65
2023/04/01 07:46:57;;;;;;;0.10;0.10;;;;;;;19.66;60.26;99500.72;5030482;28;20101;-65
2023/04/01 07:49:30;;;;;;;0.20;0.20;;;;;;;19.43;60.18;99501.94;5031877;28;20057;-63
2023/04/01 07:52:30;;;;;;;0.10;0.10;;;;;;;19.06;62.14;99505.13;5030733;28;20095;-66
2023/04/01 07:55:07;;;;;;;0.10;0.10;;;;;;;19.49;59.94;99511.59;5030147;28;20059;-65
2023/04/01 07:57:57;;;;;;;0.10;0.10;;;;;;;19.00;62.57;99520.81;5032168;28;20028;-64
2023/04/01 08:00:53;;;;;;;0.15;0.15;;;;;;;19.26;61.37;99523.66;5033510;28;20548;-64
2023/04/01 08:03:41;;;;;;;0.10;0.10;;;;;;;19.61;59.54;99519.97;4937445;29;20235;-64
2023/04/01 08:06:25;;;;;;;0.10;0.10;;;;;;;19.63;59.68;99534.09;4858980;29;20079;-64
2023/04/01 08:09:08;;;;;;;0.20;0.20;;;;;;;20.07;59.65;99530.28;4869175;29;20042;-63
2023/04/01 08:11:52;;;;;;;0.13;0.13;;;;;;;19.77;60.06;99533.97;4860514;29;20037;-64
2023/04/01 08:15:12;;;;;;;0.15;0.15;;;;;;;20.05;59.84;99540.72;4858147;29;20117;-64
2023/04/01 08:18:05;;;;;;;0.10;0.10;;;;;;;20.37;58.72;99542.22;4780572;29;20130;-65
2023/04/01 08:20:52;;;;;;;0.20;0.20;;;;;;;19.20;62.81;99552.94;4780260;29;20088;-65
2023/04/01 08:23:29;;;;;;;0.15;0.15;;;;;;;18.49;65.06;99547.69;4767101;30;20105;-65
2023/04/01 08:26:04;;;;;;;0.20;0.20;;;;;;;19.12;62.77;99561.06;4783099;29;20147;-63
2023/04/01 08:28:40;;;;;;;0.20;0.20;;;;;;;19.17;63.90;99566.38;4790574;29;20031;-64
2023/04/01 08:31:22;;;;;;;0.10;0.10;;;;;;;18.88;64.63;99564.13;4787508;29;20116;-63
2023/04/01 08:33:52;;;;;;;0.10;0.10;;;;;;;19.47;62.58;99562.88;4784369;29;20035;-64
2023/04/01 08:36:30;;;;;;;0.15;0.15;;;;;;;18.61;66.37;99579.78;4788391;29;20083;-65
2023/04/01 08:38:57;;;;;;;0.20;0.20;;;;;;;19.20;63.88;99576.66;4802724;29;20066;-65
2023/04/01 08:41:51;;;;;;;0.10;0.10;;;;;;;18.72;66.54;99586.59;4831369;29;20443;-63
2023/04/01 08:44:17;;;;;;;0.20;0.20;;;;;;;18.34;67.48;99595.03;4888110;29;20036;-63
2023/04/01 08:47:20;;;;;;;0.10;0.10;;;;;;;18.85;65.88;99593.91;4893762;29;20582;-63
2023/04/01 08:50:06;;;;;;;0.10;0.10;;;;;;;18.31;67.58;99589.41;4893598;29;20017;-62
2023/04/01 08:52:34;;;;;;;0.13;0.13;;;;;;;18.59;65.65;99595.63;4904666;28;20027;-64
2023/04/01 08:55:19;;;;;;;0.10;0.10;;;;;;;19.30;63.76;99604.41;5037635;28;20040;-65
2023/04/01 08:58:03;;;;;;;0.20;0.20;;;;;;;19.04;64.49;99600.75;5055244;28;20519;-64
2023/04/01 09:00:38;;;;;;;0.10;0.10;;;;;;;18.38;66.55;99608.84;5037474;28;20036;-65
2023/04/01 09:03:10;;;;;;;0.20;0.20;;;;;;;18.47;65.00;99608.94;5051106;28;20051;-65
2023/04/01 09:05:38;;;;;;;0.20;0.20;;;;;;;18.66;65.57;99607.69;5041092;28;20060;-65
2023/04/01 09:08:30;;;;;;;0.17;0.17;;;;;;;19.31;63.18;99616.13;5031098;28;20084;-65
2023/04/01 09:11:31;;;;;;;0.10;0.10;;;;;;;20.06;60.91;99614.06;5011330;28;20517;-66
2023/04/01 09:14:05;;;;;;;0.10;0.10;;;;;;;19.89;61.35;99608.53;4942144;29;20036;-64
2023/04/01 09:17:04;;;;;;;0.20;0.20;;;;;;;19.74;61.84;99610.91;4951345;29;20038;-65
2023/04/01 09:20:00;;;;;;;0.10;0.10;;;;;;;19.50;61.95;99624.13;4932132;29;20734;-65
2023/04/01 09:22:42;;;;;;;0.22;0.22;;;;;;;20.45;59.70;99629.56;4918123;29;20067;-64
2023/04/01 09:25:41;;;;;;;0.20;0.20;;;;;;;20.41;59.56;99627.78;4932146;29;20082;-63
2023/04/01 09:28:14;;;;;;;0.10;0.10;;;;;;;19.77;61.18;99638.31;4932653;29;20040;-65
2023/04/01 09:30:42;;;;;;;0.10;0.10;;;;;;;20.42;59.10;99637.59;4931425;29;20043;-64
2023/04/01 09:33:10;;;;;;;0.10;0.10;;;;;;;20.10;61.13;99641.50;4931150;29;20048;-65
2023/04/01 09:36:12;;;;;;;0.10;0.10;;;;;;;20.70;58.27;99647.06;4931198;29;20087;-64
2023/04/01 09:38:56;;;;;;;0.10;0.10;;;;;;;20.91;57.14;99653.53;4927490;29;20044;-64
2023/04/01 09:41:47;;;;;;;0.20;0.20;;;;;;;20.23;58.82;99653.44;4931194;29;20400;-66
2023/04/01 09:44:34;;;;;;;0.15;0.15;;;;;;;18.91;62.56;99661.50;4926406;29;20028;-64
2023/04/01 09:47:23;;;;;;;0.30;0.30;;;;;;;19.17;62.29;99669.88;4931491;29;20056;-65
2023/04/01 09:50:16;;;;;;;0.28;0.28;;;;;;;18.79;62.73;99680.31;4942937;28;20034;-63
2023/04/01 09:52:53;;;;;;;0.20;0.20;;;;;;;19.26;62.03;99668.03;4881448;29;20028;-64
2023/04/01 09:55:36;;;;;;;0.10;0.10;;;;;;;19.32;61.95;99677.66;4894238;29;20039;-64
2023/04/01 09:58:29;;;;;;;0.10;0.10;;;;;;;20.59;58.64;99679.38;4929605;29;20582;-65
2023/04/01 10:01:31;;;;;;;0.15;0.15;;;;;;;20.40;57.89;99678.81;4931356;29;20036;-65
2023/04/01 10:04:26;;;;;;;0.20;0.20;;;;;;;20.83;57.67;99685.16;4929089;29;20043;-63
2023/04/01 10:07:06;;;;;;;0.20;0.20;;;;;;;20.45;57.70;99689.59;4948759;28;20074;-64
2023/04/01 10:10:23;;;;;;;0.10;0.10;;;;;;;20.45;58.42;99695.06;4956114;28;20038;-64
2023/04/01 10:13:03;;;;;;;0.10;0.10;;;;;;;20.78;58.24;99687.22;4941825;28;20031;-64
2023/04/01 10:16:01;;;;;;;0.20;0.20;;;;;;;20.78;57.99;99696.25;4958442;28;20039;-64
2023/04/01 10:19:08;;;;;;;0.20;0.20;;;;;;;20.43;58.41;99707.41;4957432;28;20050;-66
2023/04/01 10:21:54;;;;;;;0.10;0.10;;;;;;;20.43;59.26;99710.16;4957244;28;20070;-64
2023/04/01 10:24:23;;;;;;;0.10;0.10;;;;;;;20.64;58.05;99709.22;4958527;28;20042;-65
2023/04/01 10:27:03;;;;;;;0.10;0.10;;;;;;;21.05;56.47;99713.47;4960310;28;20035;-64
2023/04/01 10:30:04;;;;;;;0.20;0.20;;;;;;;20.36;57.71;99720.72;4987759;28;20389;-64
2023/04/01 10:32:55;;;;;;;0.15;0.15;;;;;;;20.06;59.28;99731.34;4967857;28;20035;-66
2023/04/01 10:35:56;;;;;;;0.20;0.20;;;;;;;20.88;56.98;99723.25;4970787;28;20038;-65
2023/04/01 10:38:22;;;;;;;0.10;0.10;;;;;;;20.13;59.29;99723.50;4960326;28;20042;-66
2023/04/01 10:41:08;;;;;;;0.10;0.10;;;;;;;19.61;61.08;99726.28;4968923;28;20054;-65
2023/04/01 10:43:36;;;;;;;0.10;0.10;;;;;;;19.98;60.16;99734.84;4969354;28;20054;-64
2023/04/01 10:46:40;;;;;;;0.10;0.10;;;;;;;20.37;59.39;99735.97;4968494;28;20067;-65
2023/04/01 10:49:37;;;;;;;0.10;0.10;;;;;;;19.58;61.34;99733.16;4957295;28;20047;-64
2023/04/01 10:52:08;;;;;;;0.20;0.20;;;;;;;19.25;61.93;99746.22;4969657;28;20085;-64
2023/04/01 10:54:33;;;;;;;;;;;;;;;19.93;60.92;99739.63;4970032;28;20108;-64
2023/04/01 10:57:09;;;;;;;0.10;0.10;;;;;;;19.91;60.65;99750.06;4968773;28;20445;-65
2023/04/01 11:00:00;;;;;;;0.20;0.20;;;;;;;20.20;59.79;99749.56;4969684;28;20535;-66
2023/04/01 11:02:50;;;;;;;0.10;0.10;;;;;;;20.26;59.87;99751.03;4969113;28;20141;-65
2023/04/01 11:05:34;;;;;;;0.10;0.10;;;;;;;20.45;59.74;99755.13;4966933;28;20050;-63
2023/04/01 11:08:21;;;;;;;0.10;0.10;;;;;;;20.29;59.43;99753.94;5022131;28;20092;-64
2023/04/01 11:11:05;;;;;;;0.20;0.20;;;;;;;20.54;59.33;99760.59;5021933;28;20025;-65
2023/04/01 11:13:53;;;;;;;0.20;0.20;;;;;;;19.67;59.81;99769.47;5022212;28;20032;-65
2023/04/01 11:16:40;;;;;;;0.20;0.20;;;;;;;20.09;58.87;99768.91;4948802;29;20035;-64
2023/04/01 11:19:26;;;;;;;0.13;0.13;;;;;;;19.97;58.97;99774.13;4950805;28;20051;-64
2023/04/01 11:22:20;;;;;;;0.10;0.10;;;;;;;20.42;57.88;99779.50;4952479;28;20497;-66
2023/04/01 11:25:04;;;;;;;0.20;0.20;;;;;;;19.81;60.46;99783.81;4954901;28;20046;-64
2023/04/01 11:28:06;;;;;;;0.20;0.20;;;;;;;20.10;58.88;99783.34;4939547;28;20073;-65
2023/04/01 11:31:00;;;;;;;0.20;0.20;;;;;;;20.21;58.09;99786.63;4949947;28;20035;-65
2023/04/01 11:33:37;;;;;;;0.10;0.10;;;;;;;20.62;56.89;99789.84;4947576;28;20558;-66
2023/04/01 11:36:27;;;;;;;0.10;0.10;;;;;;;20.40;58.24;99792.66;4948120;29;20032;-65
2023/04/01 11:39:13;;;;;;;0.10;0.10;;;;;;;19.97;58.29;99797.84;4949661;29;20047;-64
2023/04/01 11:41:54;;;;;;;0.10;0.10;;;;;;;20.06;58.01;99805.00;4949930;29;20050;-65
2023/04/01 11:44:27;;;;;;;0.20;0.20;;;;;;;20.65;57.75;99802.88;4950438;29;20074;-64
2023/04/01 11:47:32;;;;;;;0.10;0.10;;;;;;;20.69;55.89;99814.75;4949594;29;20035;-66
2023/04/01 11:50:10;;;;;;;0.17;0.17;;;;;;;21.46;53.63;99818.44;4949925;29;20528;-65
2023/04/01 11:53:14;;;;;;;0.13;0.13;;;;;;;20.95;55.52;99815.66;4963951;28;20047;-64
2023/04/01 11:55:57;;;;;;;0.10;0.10;;;;;;;21.66;55.27;99828.72;5024826;28;20129;-65
2023/04/01 11:58:25;;;;;;;0.10;0.10;;;;;;;21.51;55.03;99826.50;5027214;28;20068;-65
2023/04/01 12:01:12;;;;;;;0.10;0.10;;;;;;;21.33;54.37;99827.59;5030475;28;20033;-65
2023/04/01 12:04:15;;;;;;;0.10;0.10;;;;;;;20.65;56.41;99835.63;5020992;28;20041;-65
2023/04/01 12:07:10;;;;;;;0.10;0.10;;;;;;;21.22;55.52;99848.19;5034381;28;20061;-65
2023/04/01 12:10:13;;;;;;;0.20;0.20;;;;;;;21.10;54.91;99850.72;5030684;28;20557;-63
2023/04/01 12:12:49;;;;;;;0.17;0.17;;;;;;;21.21;55.30;99852.03;5027426;28;20721;-65
2023/04/01 12:15:57;;;;;;;0.10;0.10;;;;;;;21.01;55.03;99852.66;5030613;28;20041;-64